sensor_id;sensor_type;location;lat;lon;timestamp;P1;durP1;ratioP1;P2;durP2;ratioP2
73315;SDS011;61545;53.726;-0.444;2023-02-28T00:01:30;8.0;;;2.1;;
73315;SDS011;61545;53.726;-0.444;2023-02-28T00:06:30;7.4;;;2.3;;
73315;SDS011;61545;53.726;-0.444;2023-02-28T00:11:30;7.8;;;1.8;;
73315;SDS011;61545;53.726;-0.444;2023-02-28T00:16:30;7.8;;;1.8;;
73315;SDS011;61545;53.726;-0.444;2023-02-28T00:21:30;5.2;;;1.9;;
73315;SDS011;61545;53.726;-0.444;2023-02-28T00:26:30;6.3;;;1.6;;
73315;SDS011;61545;53.726;-0.444;2023-02-28T00:31:30;2.4;;;1.2;;
73315;SDS011;61545;53.726;-0.444;2023-02-28T00:36:30;7.9;;;1.4;;
73315;SDS011;61545;53.726;-0.444;2023-02-28T00:41:30;4.9;;;1.2;;
73315;SDS011;61545;53.726;-0.444;2023-02-28T00:46:30;4.9;;;1.2;;
73315;SDS011;61545;53.726;-0.444;2023-02-28T00:51:30;4.9;;;1;;
73315;SDS011;61545;53.726;-0.444;2023-02-28T00:56:30;3.1;;;0.8;;
73315;SDS011;61545;53.726;-0.444;2023-02-28T01:01:30;6.8;;;0.9;;
73315;SDS011;61545;53.726;-0.444;2023-02-28T01:06:30;5.0;;;0.9;;
73315;SDS011;61545;53.726;-0.444;2023-02-28T01:11:30;1.9;;;0.7;;
73315;SDS011;61545;53.726;-0.444;2023-02-28T01:16:30;1.9;;;0.7;;
73315;SDS011;61545;53.726;-0.444;2023-02-28T01:21:31;2.9;;;0.8;;
73315;SDS011;61545;53.726;-0.444;2023-02-28T01:26:30;5.6;;;1;;
73315;SDS011;61545;53.726;-0.444;2023-02-28T01:31:30;1.9;;;0.6;;
73315;SDS011;61545;53.726;-0.444;2023-02-28T01:36:30;3.2;;;0.8;;
73315;SDS011;61545;53.726;-0.444;2023-02-28T01:41:31;3.8;;;0.9;;
73315;SDS011;61545;53.726;-0.444;2023-02-28T01:46:30;3.8;;;0.9;;
73315;SDS011;61545;53.726;-0.444;2023-02-28T01:51:32;1.4;;;0.7;;
73315;SDS011;61545;53.726;-0.444;2023-02-28T01:56:32;4.1;;;0.9;;
73315;SDS011;61545;53.726;-0.444;2023-02-28T02:01:30;4.0;;;0.8;;
73315;SDS011;61545;53.726;-0.444;2023-02-28T02:06:33;4.0;;;0.7;;
73315;SDS011;61545;53.726;-0.444;2023-02-28T02:11:30;2.1;;;0.8;;
73315;SDS011;61545;53.726;-0.444;2023-02-28T02:16:36;2.1;;;0.8;;
73315;SDS011;61545;53.726;-0.444;2023-02-28T02:21:54;3.8;;;0.9;;
73315;SDS011;61545;53.726;-0.444;2023-02-28T02:26:51;1.1;;;0.6;;
73315;SDS011;61545;53.726;-0.444;2023-02-28T02:31:41;4.1;;;0.7;;
73315;SDS011;61545;53.726;-0.444;2023-02-28T02:36:32;0.9;;;0.4;;
73315;SDS011;61545;53.726;-0.444;2023-02-28T02:41:33;2.0;;;0.6;;
73315;SDS011;61545;53.726;-0.444;2023-02-28T02:46:32;2.0;;;0.6;;
73315;SDS011;61545;53.726;-0.444;2023-02-28T02:51:30;2.3;;;0.5;;
73315;SDS011;61545;53.726;-0.444;2023-02-28T02:56:31;4.3;;;0.7;;
73315;SDS011;61545;53.726;-0.444;2023-02-28T03:01:31;2.1;;;0.7;;
73315;SDS011;61545;53.726;-0.444;2023-02-28T03:06:30;0.8;;;0.5;;
73315;SDS011;61545;53.726;-0.444;2023-02-28T03:11:30;2.4;;;0.9;;
73315;SDS011;61545;53.726;-0.444;2023-02-28T03:16:35;2.4;;;0.9;;
73315;SDS011;61545;53.726;-0.444;2023-02-28T03:21:33;3.6;;;0.9;;
73315;SDS011;61545;53.726;-0.444;2023-02-28T03:26:30;3.8;;;0.8;;
73315;SDS011;61545;53.726;-0.444;2023-02-28T03:31:32;2.4;;;1;;
73315;SDS011;61545;53.726;-0.444;2023-02-28T03:36:32;2.5;;;0.8;;
73315;SDS011;61545;53.726;-0.444;2023-02-28T03:41:31;2.3;;;0.7;;
73315;SDS011;61545;53.726;-0.444;2023-02-28T03:46:32;2.3;;;0.7;;
73315;SDS011;61545;53.726;-0.444;2023-02-28T03:51:30;1.7;;;0.6;;
73315;SDS011;61545;53.726;-0.444;2023-02-28T03:56:32;2.5;;;0.6;;
73315;SDS011;61545;53.726;-0.444;2023-02-28T04:01:33;1.5;;;0.6;;
73315;SDS011;61545;53.726;-0.444;2023-02-28T04:06:31;2.0;;;0.9;;
73315;SDS011;61545;53.726;-0.444;2023-02-28T04:11:33;1.9;;;0.8;;
73315;SDS011;61545;53.726;-0.444;2023-02-28T04:16:30;1.9;;;0.8;;
73315;SDS011;61545;53.726;-0.444;2023-02-28T04:21:30;1.9;;;0.7;;
73315;SDS011;61545;53.726;-0.444;2023-02-28T04:26:30;2.3;;;0.6;;
73315;SDS011;61545;53.726;-0.444;2023-02-28T04:31:30;1.6;;;0.8;;
73315;SDS011;61545;53.726;-0.444;2023-02-28T04:36:30;1.3;;;0.7;;
73315;SDS011;61545;53.726;-0.444;2023-02-28T04:41:30;2.4;;;0.8;;
73315;SDS011;61545;53.726;-0.444;2023-02-28T04:46:30;2.4;;;0.8;;
73315;SDS011;61545;53.726;-0.444;2023-02-28T04:51:30;5.0;;;1.1;;
73315;SDS011;61545;53.726;-0.444;2023-02-28T04:56:30;5.4;;;1.1;;
73315;SDS011;61545;53.726;-0.444;2023-02-28T05:01:31;3.1;;;0.8;;
73315;SDS011;61545;53.726;-0.444;2023-02-28T05:06:31;4.9;;;1;;
73315;SDS011;61545;53.726;-0.444;2023-02-28T05:11:31;1.2;;;0.8;;
73315;SDS011;61545;53.726;-0.444;2023-02-28T05:16:30;1.2;;;0.8;;
73315;SDS011;61545;53.726;-0.444;2023-02-28T05:21:31;1.2;;;0.7;;
73315;SDS011;61545;53.726;-0.444;2023-02-28T05:26:30;0.8;;;0.5;;
73315;SDS011;61545;53.726;-0.444;2023-02-28T05:31:30;3.5;;;0.8;;
73315;SDS011;61545;53.726;-0.444;2023-02-28T05:36:30;2.7;;;0.9;;
73315;SDS011;61545;53.726;-0.444;2023-02-28T05:41:30;3.8;;;1;;
73315;SDS011;61545;53.726;-0.444;2023-02-28T05:46:30;3.8;;;1;;
73315;SDS011;61545;53.726;-0.444;2023-02-28T05:51:30;2.8;;;1.1;;
73315;SDS011;61545;53.726;-0.444;2023-02-28T05:56:30;3.7;;;1;;
73315;SDS011;61545;53.726;-0.444;2023-02-28T06:01:32;2.9;;;1;;
73315;SDS011;61545;53.726;-0.444;2023-02-28T06:06:30;3.0;;;1.1;;
73315;SDS011;61545;53.726;-0.444;2023-02-28T06:11:30;3.4;;;1.2;;
73315;SDS011;61545;53.726;-0.444;2023-02-28T06:16:32;3.4;;;1.2;;
73315;SDS011;61545;53.726;-0.444;2023-02-28T06:21:30;1.6;;;0.9;;
73315;SDS011;61545;53.726;-0.444;2023-02-28T06:26:30;1.6;;;0.6;;
73315;SDS011;61545;53.726;-0.444;2023-02-28T06:31:30;1.0;;;0.7;;
73315;SDS011;61545;53.726;-0.444;2023-02-28T06:36:30;1.0;;;0.9;;
73315;SDS011;61545;53.726;-0.444;2023-02-28T06:41:30;1.9;;;1.4;;
73315;SDS011;61545;53.726;-0.444;2023-02-28T06:46:30;1.9;;;1.4;;
73315;SDS011;61545;53.726;-0.444;2023-02-28T06:51:30;4.2;;;2.2;;
73315;SDS011;61545;53.726;-0.444;2023-02-28T06:56:30;2.0;;;1.5;;
73315;SDS011;61545;53.726;-0.444;2023-02-28T07:01:30;1.3;;;1;;
73315;SDS011;61545;53.726;-0.444;2023-02-28T07:06:30;4.0;;;0.8;;
73315;SDS011;61545;53.726;-0.444;2023-02-28T07:11:30;3.1;;;0.8;;
73315;SDS011;61545;53.726;-0.444;2023-02-28T07:16:30;3.1;;;0.8;;
73315;SDS011;61545;53.726;-0.444;2023-02-28T07:21:30;2.1;;;1;;
73315;SDS011;61545;53.726;-0.444;2023-02-28T07:26:30;2.4;;;0.9;;
73315;SDS011;61545;53.726;-0.444;2023-02-28T07:31:30;2.9;;;0.9;;
73315;SDS011;61545;53.726;-0.444;2023-02-28T07:36:30;1.8;;;0.8;;
73315;SDS011;61545;53.726;-0.444;2023-02-28T07:41:30;1.5;;;0.7;;
73315;SDS011;61545;53.726;-0.444;2023-02-28T07:46:30;1.5;;;0.7;;
73315;SDS011;61545;53.726;-0.444;2023-02-28T07:51:30;1.1;;;0.6;;
73315;SDS011;61545;53.726;-0.444;2023-02-28T07:56:30;2.9;;;0.9;;
73315;SDS011;61545;53.726;-0.444;2023-02-28T08:01:30;3.5;;;0.9;;
73315;SDS011;61545;53.726;-0.444;2023-02-28T08:06:30;3.6;;;0.8;;
73315;SDS011;61545;53.726;-0.444;2023-02-28T08:11:30;4.3;;;0.9;;
73315;SDS011;61545;53.726;-0.444;2023-02-28T08:16:30;4.3;;;0.9;;
73315;SDS011;61545;53.726;-0.444;2023-02-28T08:21:30;3.4;;;0.8;;
73315;SDS011;61545;53.726;-0.444;2023-02-28T08:26:30;4.4;;;1.1;;
73315;SDS011;61545;53.726;-0.444;2023-02-28T08:31:30;2.8;;;1.1;;
73315;SDS011;61545;53.726;-0.444;2023-02-28T08:36:30;3.9;;;0.8;;
73315;SDS011;61545;53.726;-0.444;2023-02-28T08:41:30;2.9;;;0.9;;
73315;SDS011;61545;53.726;-0.444;2023-02-28T08:46:30;2.9;;;0.9;;
73315;SDS011;61545;53.726;-0.444;2023-02-28T08:51:30;2.7;;;1;;
73315;SDS011;61545;53.726;-0.444;2023-02-28T08:56:30;8.4;;;1.2;;
73315;SDS011;61545;53.726;-0.444;2023-02-28T09:01:30;3.9;;;0.8;;
73315;SDS011;61545;53.726;-0.444;2023-02-28T09:06:30;4.0;;;0.7;;
73315;SDS011;61545;53.726;-0.444;2023-02-28T09:11:30;3.2;;;0.7;;
73315;SDS011;61545;53.726;-0.444;2023-02-28T09:16:30;3.2;;;0.7;;
73315;SDS011;61545;53.726;-0.444;2023-02-28T09:21:30;3.6;;;0.9;;
73315;SDS011;61545;53.726;-0.444;2023-02-28T09:26:30;4.0;;;0.8;;
73315;SDS011;61545;53.726;-0.444;2023-02-28T09:31:30;4.8;;;1;;
73315;SDS011;61545;53.726;-0.444;2023-02-28T09:36:30;6.2;;;0.9;;
73315;SDS011;61545;53.726;-0.444;2023-02-28T09:41:35;4.6;;;0.9;;
73315;SDS011;61545;53.726;-0.444;2023-02-28T09:46:33;4.6;;;0.9;;
73315;SDS011;61545;53.726;-0.444;2023-02-28T09:51:35;3.9;;;0.6;;
73315;SDS011;61545;53.726;-0.444;2023-02-28T09:56:33;2.7;;;0.9;;
73315;SDS011;61545;53.726;-0.444;2023-02-28T10:01:33;5.9;;;0.9;;
73315;SDS011;61545;53.726;-0.444;2023-02-28T10:06:33;3.1;;;0.9;;
73315;SDS011;61545;53.726;-0.444;2023-02-28T10:11:32;2.1;;;0.6;;
73315;SDS011;61545;53.726;-0.444;2023-02-28T10:16:31;2.1;;;0.6;;
73315;SDS011;61545;53.726;-0.444;2023-02-28T10:21:34;1.9;;;0.7;;
73315;SDS011;61545;53.726;-0.444;2023-02-28T10:26:31;5.3;;;0.9;;
73315;SDS011;61545;53.726;-0.444;2023-02-28T10:31:30;5.0;;;0.7;;
73315;SDS011;61545;53.726;-0.444;2023-02-28T10:36:30;4.0;;;0.7;;
73315;SDS011;61545;53.726;-0.444;2023-02-28T10:41:31;3.8;;;0.6;;
73315;SDS011;61545;53.726;-0.444;2023-02-28T10:46:30;3.8;;;0.6;;
73315;SDS011;61545;53.726;-0.444;2023-02-28T10:51:38;2.3;;;0.5;;
73315;SDS011;61545;53.726;-0.444;2023-02-28T10:56:30;1.7;;;0.4;;
73315;SDS011;61545;53.726;-0.444;2023-02-28T11:01:38;1.8;;;0.7;;
73315;SDS011;61545;53.726;-0.444;2023-02-28T11:06:31;3.4;;;0.6;;
73315;SDS011;61545;53.726;-0.444;2023-02-28T11:11:31;2.8;;;0.6;;
73315;SDS011;61545;53.726;-0.444;2023-02-28T11:16:32;2.8;;;0.6;;
73315;SDS011;61545;53.726;-0.444;2023-02-28T11:21:32;2.0;;;0.5;;
73315;SDS011;61545;53.726;-0.444;2023-02-28T11:26:39;1.5;;;0.4;;
73315;SDS011;61545;53.726;-0.444;2023-02-28T11:31:30;1.4;;;0.5;;
73315;SDS011;61545;53.726;-0.444;2023-02-28T11:36:31;2.8;;;0.5;;
73315;SDS011;61545;53.726;-0.444;2023-02-28T11:41:51;3.6;;;1.1;;
73315;SDS011;61545;53.726;-0.444;2023-02-28T11:46:32;3.6;;;1.1;;
73315;SDS011;61545;53.726;-0.444;2023-02-28T11:51:32;3.1;;;1;;
73315;SDS011;61545;53.726;-0.444;2023-02-28T11:56:32;4.4;;;0.9;;
73315;SDS011;61545;53.726;-0.444;2023-02-28T12:01:38;4.7;;;0.7;;
73315;SDS011;61545;53.726;-0.444;2023-02-28T12:06:32;1.5;;;0.5;;
73315;SDS011;61545;53.726;-0.444;2023-02-28T12:11:36;1.2;;;0.5;;
73315;SDS011;61545;53.726;-0.444;2023-02-28T12:16:40;1.2;;;0.5;;
73315;SDS011;61545;53.726;-0.444;2023-02-28T12:21:35;5.0;;;0.7;;
73315;SDS011;61545;53.726;-0.444;2023-02-28T12:26:34;4.2;;;0.9;;
73315;SDS011;61545;53.726;-0.444;2023-02-28T12:31:31;0.8;;;0.4;;
73315;SDS011;61545;53.726;-0.444;2023-02-28T12:36:30;2.4;;;0.4;;
73315;SDS011;61545;53.726;-0.444;2023-02-28T12:41:34;2.8;;;0.6;;
73315;SDS011;61545;53.726;-0.444;2023-02-28T12:46:32;2.8;;;0.6;;
73315;SDS011;61545;53.726;-0.444;2023-02-28T12:51:30;6.4;;;0.9;;
73315;SDS011;61545;53.726;-0.444;2023-02-28T12:56:35;5.3;;;0.9;;
73315;SDS011;61545;53.726;-0.444;2023-02-28T13:01:55;5.1;;;1.1;;
73315;SDS011;61545;53.726;-0.444;2023-02-28T13:06:39;2.2;;;0.7;;
73315;SDS011;61545;53.726;-0.444;2023-02-28T13:11:31;3.1;;;1;;
73315;SDS011;61545;53.726;-0.444;2023-02-28T13:16:55;3.1;;;1;;
73315;SDS011;61545;53.726;-0.444;2023-02-28T13:21:30;2.8;;;0.6;;
73315;SDS011;61545;53.726;-0.444;2023-02-28T13:27:36;2.6;;;0.9;;
73315;SDS011;61545;53.726;-0.444;2023-02-28T13:31:30;2.5;;;0.7;;
73315;SDS011;61545;53.726;-0.444;2023-02-28T13:36:30;2.4;;;0.8;;
73315;SDS011;61545;53.726;-0.444;2023-02-28T13:41:46;2.3;;;0.7;;
73315;SDS011;61545;53.726;-0.444;2023-02-28T13:46:31;2.3;;;0.7;;
73315;SDS011;61545;53.726;-0.444;2023-02-28T13:51:38;2.7;;;1;;
73315;SDS011;61545;53.726;-0.444;2023-02-28T13:56:35;1.2;;;0.7;;
73315;SDS011;61545;53.726;-0.444;2023-02-28T14:01:37;2.0;;;0.8;;
73315;SDS011;61545;53.726;-0.444;2023-02-28T14:06:30;4.1;;;0.7;;
73315;SDS011;61545;53.726;-0.444;2023-02-28T14:11:32;2.8;;;0.6;;
73315;SDS011;61545;53.726;-0.444;2023-02-28T14:16:36;2.8;;;0.6;;
73315;SDS011;61545;53.726;-0.444;2023-02-28T14:21:31;3.6;;;0.7;;
73315;SDS011;61545;53.726;-0.444;2023-02-28T14:26:38;2.5;;;0.7;;
73315;SDS011;61545;53.726;-0.444;2023-02-28T14:31:34;2.9;;;0.7;;
73315;SDS011;61545;53.726;-0.444;2023-02-28T14:36:32;3.5;;;0.9;;
73315;SDS011;61545;53.726;-0.444;2023-02-28T14:41:31;2.6;;;0.8;;
73315;SDS011;61545;53.726;-0.444;2023-02-28T14:46:35;2.6;;;0.8;;
73315;SDS011;61545;53.726;-0.444;2023-02-28T14:51:30;2.5;;;0.6;;
73315;SDS011;61545;53.726;-0.444;2023-02-28T14:56:34;1.7;;;0.4;;
73315;SDS011;61545;53.726;-0.444;2023-02-28T15:01:30;1.6;;;0.3;;
73315;SDS011;61545;53.726;-0.444;2023-02-28T15:06:31;4.0;;;0.6;;
73315;SDS011;61545;53.726;-0.444;2023-02-28T15:11:30;4.0;;;1;;
73315;SDS011;61545;53.726;-0.444;2023-02-28T15:16:31;4.0;;;1;;
73315;SDS011;61545;53.726;-0.444;2023-02-28T15:21:31;4.8;;;1;;
73315;SDS011;61545;53.726;-0.444;2023-02-28T15:26:32;5.5;;;0.7;;
73315;SDS011;61545;53.726;-0.444;2023-02-28T15:31:32;3.9;;;1;;
73315;SDS011;61545;53.726;-0.444;2023-02-28T15:36:31;5.8;;;1.1;;
73315;SDS011;61545;53.726;-0.444;2023-02-28T15:41:35;1.5;;;0.4;;
73315;SDS011;61545;53.726;-0.444;2023-02-28T15:46:30;1.5;;;0.4;;
73315;SDS011;61545;53.726;-0.444;2023-02-28T15:51:32;3.6;;;0.6;;
73315;SDS011;61545;53.726;-0.444;2023-02-28T15:56:31;3.3;;;1;;
73315;SDS011;61545;53.726;-0.444;2023-02-28T16:01:32;9.1;;;2.1;;
73315;SDS011;61545;53.726;-0.444;2023-02-28T16:06:39;2.9;;;1.1;;
73315;SDS011;61545;53.726;-0.444;2023-02-28T16:11:30;4.1;;;0.8;;
73315;SDS011;61545;53.726;-0.444;2023-02-28T16:16:30;4.1;;;0.8;;
73315;SDS011;61545;53.726;-0.444;2023-02-28T16:21:30;4.6;;;1.1;;
73315;SDS011;61545;53.726;-0.444;2023-02-28T16:31:30;4.8;;;1.1;;
73315;SDS011;61545;53.726;-0.444;2023-02-28T16:36:30;5.4;;;1.3;;
73315;SDS011;61545;53.726;-0.444;2023-02-28T16:41:30;8.0;;;1.3;;
73315;SDS011;61545;53.726;-0.444;2023-02-28T16:46:33;8.0;;;1.3;;
73315;SDS011;61545;53.726;-0.444;2023-02-28T16:51:30;4.6;;;1.4;;
73315;SDS011;61545;53.726;-0.444;2023-02-28T16:56:30;3.6;;;0.9;;
73315;SDS011;61545;53.726;-0.444;2023-02-28T17:01:30;4.5;;;1.3;;
73315;SDS011;61545;53.726;-0.444;2023-02-28T17:06:30;5.1;;;1.4;;
73315;SDS011;61545;53.726;-0.444;2023-02-28T17:11:30;7.2;;;1.5;;
73315;SDS011;61545;53.726;-0.444;2023-02-28T17:16:32;7.2;;;1.5;;
73315;SDS011;61545;53.726;-0.444;2023-02-28T17:21:31;8.7;;;1.9;;
73315;SDS011;61545;53.726;-0.444;2023-02-28T17:26:30;7.0;;;1.2;;
73315;SDS011;61545;53.726;-0.444;2023-02-28T17:31:30;5.5;;;1.6;;
73315;SDS011;61545;53.726;-0.444;2023-02-28T17:36:30;6.9;;;1.4;;
73315;SDS011;61545;53.726;-0.444;2023-02-28T17:41:30;9.3;;;2.5;;
73315;SDS011;61545;53.726;-0.444;2023-02-28T17:46:30;9.3;;;2.5;;
73315;SDS011;61545;53.726;-0.444;2023-02-28T17:51:30;9.5;;;2.1;;
73315;SDS011;61545;53.726;-0.444;2023-02-28T17:56:30;5.5;;;1.5;;
73315;SDS011;61545;53.726;-0.444;2023-02-28T18:01:30;5.2;;;1.5;;
73315;SDS011;61545;53.726;-0.444;2023-02-28T18:06:32;7.4;;;1.6;;
73315;SDS011;61545;53.726;-0.444;2023-02-28T18:11:30;6.9;;;1.8;;
73315;SDS011;61545;53.726;-0.444;2023-02-28T18:16:30;6.9;;;1.8;;
73315;SDS011;61545;53.726;-0.444;2023-02-28T18:21:30;8.5;;;1.7;;
73315;SDS011;61545;53.726;-0.444;2023-02-28T18:26:30;8.0;;;1.6;;
73315;SDS011;61545;53.726;-0.444;2023-02-28T18:31:30;9.3;;;2.1;;
73315;SDS011;61545;53.726;-0.444;2023-02-28T18:36:30;6.0;;;1.6;;
73315;SDS011;61545;53.726;-0.444;2023-02-28T18:41:30;12.2;;;2.8;;
73315;SDS011;61545;53.726;-0.444;2023-02-28T18:46:30;12.2;;;2.8;;
73315;SDS011;61545;53.726;-0.444;2023-02-28T18:51:30;10.3;;;2.6;;
73315;SDS011;61545;53.726;-0.444;2023-02-28T18:56:30;11.5;;;2.5;;
73315;SDS011;61545;53.726;-0.444;2023-02-28T19:01:30;11.9;;;2.4;;
73315;SDS011;61545;53.726;-0.444;2023-02-28T19:06:31;11.1;;;2.1;;
73315;SDS011;61545;53.726;-0.444;2023-02-28T19:11:30;9.8;;;1.8;;
73315;SDS011;61545;53.726;-0.444;2023-02-28T19:16:30;9.8;;;1.8;;
73315;SDS011;61545;53.726;-0.444;2023-02-28T19:21:30;15.8;;;2.9;;
73315;SDS011;61545;53.726;-0.444;2023-02-28T19:26:30;11.3;;;2.4;;
73315;SDS011;61545;53.726;-0.444;2023-02-28T19:31:30;11.3;;;2.3;;
73315;SDS011;61545;53.726;-0.444;2023-02-28T19:36:30;11.7;;;3.1;;
73315;SDS011;61545;53.726;-0.444;2023-02-28T19:41:30;12.2;;;3.2;;
73315;SDS011;61545;53.726;-0.444;2023-02-28T19:46:30;12.2;;;3.2;;
73315;SDS011;61545;53.726;-0.444;2023-02-28T19:51:30;14.6;;;3.1;;
73315;SDS011;61545;53.726;-0.444;2023-02-28T19:56:30;10.7;;;3.1;;
73315;SDS011;61545;53.726;-0.444;2023-02-28T20:01:30;11.3;;;2.2;;
73315;SDS011;61545;53.726;-0.444;2023-02-28T20:06:31;20.1;;;2.9;;
73315;SDS011;61545;53.726;-0.444;2023-02-28T20:11:30;12.5;;;2.5;;
73315;SDS011;61545;53.726;-0.444;2023-02-28T20:16:31;12.5;;;2.5;;
73315;SDS011;61545;53.726;-0.444;2023-02-28T20:21:30;15.2;;;3;;
73315;SDS011;61545;53.726;-0.444;2023-02-28T20:26:30;18.4;;;3;;
73315;SDS011;61545;53.726;-0.444;2023-02-28T20:31:30;14.6;;;3.2;;
73315;SDS011;61545;53.726;-0.444;2023-02-28T20:36:30;17.6;;;3.3;;
73315;SDS011;61545;53.726;-0.444;2023-02-28T20:41:30;17.2;;;3.3;;
73315;SDS011;61545;53.726;-0.444;2023-02-28T20:46:30;17.2;;;3.3;;
73315;SDS011;61545;53.726;-0.444;2023-02-28T20:51:30;13.1;;;2.5;;
73315;SDS011;61545;53.726;-0.444;2023-02-28T20:56:30;13.3;;;2.5;;
73315;SDS011;61545;53.726;-0.444;2023-02-28T21:01:30;15.0;;;2.7;;
73315;SDS011;61545;53.726;-0.444;2023-02-28T21:06:31;13.8;;;2;;
73315;SDS011;61545;53.726;-0.444;2023-02-28T21:11:32;8.8;;;1.9;;
73315;SDS011;61545;53.726;-0.444;2023-02-28T21:16:30;8.8;;;1.9;;
73315;SDS011;61545;53.726;-0.444;2023-02-28T21:21:32;11.0;;;2.2;;
73315;SDS011;61545;53.726;-0.444;2023-02-28T21:26:30;17.0;;;2.7;;
73315;SDS011;61545;53.726;-0.444;2023-02-28T21:31:31;9.0;;;2.2;;
73315;SDS011;61545;53.726;-0.444;2023-02-28T21:36:31;16.6;;;2.2;;
73315;SDS011;61545;53.726;-0.444;2023-02-28T21:41:30;14.6;;;2.6;;
73315;SDS011;61545;53.726;-0.444;2023-02-28T21:46:30;14.6;;;2.6;;
73315;SDS011;61545;53.726;-0.444;2023-02-28T21:51:30;12.5;;;2.3;;
73315;SDS011;61545;53.726;-0.444;2023-02-28T21:56:32;10.5;;;2.1;;
73315;SDS011;61545;53.726;-0.444;2023-02-28T22:01:31;11.9;;;2.9;;
73315;SDS011;61545;53.726;-0.444;2023-02-28T22:06:32;11.3;;;2;;
73315;SDS011;61545;53.726;-0.444;2023-02-28T22:11:31;10.6;;;1.7;;
73315;SDS011;61545;53.726;-0.444;2023-02-28T22:16:31;10.6;;;1.7;;
73315;SDS011;61545;53.726;-0.444;2023-02-28T22:21:30;5.6;;;1.4;;
73315;SDS011;61545;53.726;-0.444;2023-02-28T22:26:30;13.5;;;1.7;;
73315;SDS011;61545;53.726;-0.444;2023-02-28T22:31:31;6.3;;;1.5;;
73315;SDS011;61545;53.726;-0.444;2023-02-28T22:36:30;6.3;;;1.3;;
73315;SDS011;61545;53.726;-0.444;2023-02-28T22:41:31;9.6;;;1.9;;
73315;SDS011;61545;53.726;-0.444;2023-02-28T22:46:31;9.6;;;1.9;;
73315;SDS011;61545;53.726;-0.444;2023-02-28T22:51:31;8.1;;;1.5;;
73315;SDS011;61545;53.726;-0.444;2023-02-28T22:56:30;9.3;;;1.8;;
73315;SDS011;61545;53.726;-0.444;2023-02-28T23:01:32;14.6;;;1.9;;
73315;SDS011;61545;53.726;-0.444;2023-02-28T23:06:31;9.2;;;1.4;;
73315;SDS011;61545;53.726;-0.444;2023-02-28T23:11:32;9.5;;;1.8;;
73315;SDS011;61545;53.726;-0.444;2023-02-28T23:16:31;9.5;;;1.8;;
73315;SDS011;61545;53.726;-0.444;2023-02-28T23:21:31;7.8;;;1.9;;
73315;SDS011;61545;53.726;-0.444;2023-02-28T23:26:31;8.0;;;1.9;;
73315;SDS011;61545;53.726;-0.444;2023-02-28T23:31:30;7.5;;;1.6;;
73315;SDS011;61545;53.726;-0.444;2023-02-28T23:36:30;8.2;;;1.6;;
73315;SDS011;61545;53.726;-0.444;2023-02-28T23:41:30;9.0;;;2.3;;
73315;SDS011;61545;53.726;-0.444;2023-02-28T23:46:30;9.0;;;2.3;;
73315;SDS011;61545;53.726;-0.444;2023-02-28T23:51:30;16.8;;;2.9;;
73315;SDS011;61545;53.726;-0.444;2023-02-28T23:56:30;9.9;;;2.2;;
